»·PEaware :: FDX5954 KRNO-KSFO

FDX5954 :: KRNO-KSFO

FLIGHT INFORMATION

Flight Status: Arrived
Operator:
Federal Express
More flights by this operator :: More flights under this callsign
Pilot: Joshua M. (19482)
Aircraft: BOEING 737-800
(B738)
More flights by this aircraft type
Origin: KRNO Reno/Tahoe Intl
United States
Destination: KSFO San Francisco Intl
United States
More flights between these airports :: More routes between these airports
Route: +PVINE3 CRDDZ LEGGS BDEGA2
File this flight plan on PilotEdge
Remarks: Outdated FMC Default XPlane
Altitude:
(Current/Filed)
28,000ft
Speed:
(Current/Filed)
450kts
Departed: 30-Jul-18 07:30 PM
Arrived: 30-Jul-18 08:25 PM
Distance/Time
Traveled:
167nm/0:55
Distance/Time
To Go:
Arrived

Flight Plot

Page will automatically refresh every two minutes.


Map Options




Map Legend


Flown Route
Filed Route
Departure Airport
Arrival Airport
Navaid (VOR, NDB)
Fix

Horizontal Profiles

Position Reports

Time Latitude Longitude Heading Altitude Ground
Speed
30-Jul-18 19:20 39.508514 -119.773127 180 4423ft 0kts
30-Jul-18 19:21 39.508514 -119.773127 180 4423ft 0kts
30-Jul-18 19:22 39.508514 -119.773127 180 4423ft 0kts
30-Jul-18 19:23 39.508514 -119.773127 180 4423ft 0kts
30-Jul-18 19:24 39.508514 -119.773127 180 4423ft 0kts
30-Jul-18 19:25 39.507275 -119.771667 123 4423ft 7kts
30-Jul-18 19:26 39.505155 -119.771488 180 4423ft 4kts
30-Jul-18 19:27 39.502627 -119.771466 180 4423ft 20kts
30-Jul-18 19:28 39.496379 -119.771530 179 4423ft 25kts
30-Jul-18 19:29 39.489345 -119.771400 183 4423ft 31kts
30-Jul-18 19:30 39.483861 -119.769956 73 4423ft 14kts
30-Jul-18 19:31 39.500817 -119.769131 357 4424ft 156kts
30-Jul-18 19:32 39.549580 -119.766752 357 5345ft 196kts
30-Jul-18 19:33 39.599601 -119.780730 304 6920ft 199kts
30-Jul-18 19:34 39.627001 -119.842434 298 8721ft 206kts
30-Jul-18 19:35 39.653916 -119.908066 297 10567ft 213kts
30-Jul-18 19:36 39.660370 -119.980856 252 12190ft 219kts
30-Jul-18 19:37 39.638899 -120.060785 250 13479ft 246kts
30-Jul-18 19:38 39.615267 -120.144022 250 15590ft 251kts
30-Jul-18 19:39 39.592530 -120.223140 250 17585ft 256kts
30-Jul-18 19:40 39.567287 -120.310557 249 19574ft 262kts
30-Jul-18 19:41 39.541534 -120.399399 249 21375ft 268kts
30-Jul-18 19:42 39.515091 -120.490313 249 23021ft 273kts
30-Jul-18 19:43 39.487496 -120.584839 249 23926ft 303kts
30-Jul-18 19:44 39.454706 -120.696726 248 24025ft 363kts
30-Jul-18 19:45 39.416550 -120.826360 248 24519ft 404kts
30-Jul-18 19:46 39.379279 -120.952357 248 24285ft 376kts
30-Jul-18 19:47 39.341819 -121.077526 244 24280ft 374kts
30-Jul-18 19:48 39.278857 -121.184222 230 24292ft 374kts
30-Jul-18 19:49 39.215971 -121.281189 230 24296ft 374kts
30-Jul-18 19:50 39.149353 -121.383129 230 24299ft 374kts
30-Jul-18 19:51 39.082878 -121.484495 230 24296ft 375kts
30-Jul-18 19:52 39.015874 -121.586336 230 24295ft 374kts
30-Jul-18 19:53 38.958356 -121.673498 230 24299ft 374kts
30-Jul-18 19:54 38.893397 -121.771732 228 23932ft 371kts
30-Jul-18 19:55 38.828325 -121.869666 229 23981ft 373kts
30-Jul-18 19:56 38.761812 -121.969541 228 23981ft 372kts
30-Jul-18 19:57 38.695745 -122.068434 228 23982ft 373kts
30-Jul-18 19:58 38.628650 -122.168559 228 23983ft 374kts
30-Jul-18 19:59 38.561458 -122.268511 229 24007ft 372kts
30-Jul-18 20:00 38.496780 -122.364429 228 24034ft 370kts
30-Jul-18 20:01 38.443179 -122.443836 229 23949ft 360kts
30-Jul-18 20:02 38.382101 -122.534596 229 21807ft 359kts
30-Jul-18 20:03 38.301238 -122.654400 228 19259ft 350kts
30-Jul-18 20:04 38.233773 -122.740809 206 18816ft 342kts
30-Jul-18 20:05 38.173390 -122.748775 172 17375ft 345kts
30-Jul-18 20:06 38.133964 -122.739802 169 16575ft 343kts
30-Jul-18 20:07 37.962697 -122.691541 167 13189ft 329kts
30-Jul-18 20:08 37.880643 -122.650898 142 11506ft 321kts
30-Jul-18 20:09 37.816660 -122.585193 140 11005ft 290kts
30-Jul-18 20:10 37.758377 -122.523752 140 11031ft 294kts
30-Jul-18 20:11 37.702925 -122.464939 140 11023ft 294kts
30-Jul-18 20:12 37.648381 -122.406976 140 11012ft 294kts
30-Jul-18 20:13 37.588519 -122.354699 153 10454ft 280kts
30-Jul-18 20:14 37.526173 -122.313425 153 9249ft 276kts
30-Jul-18 20:15 37.482643 -122.248557 113 8016ft 275kts
30-Jul-18 20:16 37.455917 -122.166808 112 5939ft 269kts
30-Jul-18 20:17 37.441831 -122.094906 72 4091ft 258kts
30-Jul-18 20:18 37.482185 -122.056163 355 4013ft 196kts
30-Jul-18 20:19 37.510155 -122.103742 292 4014ft 185kts
30-Jul-18 20:20 37.530975 -122.160176 298 3443ft 159kts
30-Jul-18 20:21 37.550043 -122.206150 299 2667ft 139kts
30-Jul-18 20:22 37.568052 -122.248917 299 1936ft 138kts
30-Jul-18 20:23 37.585940 -122.291397 299 1197ft 136kts
30-Jul-18 20:24 37.603484 -122.333181 299 473ft 135kts
30-Jul-18 20:25 37.619509 -122.371557 298 21ft 75kts
30-Jul-18 20:26 37.624944 -122.384437 298 21ft 31kts
30-Jul-18 20:27 37.628782 -122.392811 325 21ft 18kts

Navigation Log

Ident Type
1. KRNO Airport
2. PVINE Fix
3. CRDDZ Fix
4. KSFO Airport